Archival Weather

General Ignacio P Garcia Intl

General Ignacio P Garcia Intl, Mexico (MMHO)

Report from: Tuesday, September 19, 2023 8:40 PM CST
Current time: Tuesday, July 16, 2024 9:50 AM CST

Current weather – Weather history – Daily summaries
Weather forecast

Temperature33.0°C (91.4°F)
Heat index37.1°C (98.7°F)
Dew point22.0°C (71.6°F)
Winds 5 kts (2.6 m/s, 5.8 mph) West-Southwest (250°)
Visibility10 mi. (16.1 km)
Clouds Sky clear
Altimeter29.82 in.Hg (1010 mB)
Relative humidity53 %
Density altitude2,549 ft. (777 m)
Sea-level pressure100.9 kPa (1009 mB, 29.80 in.Hg)
Remarks Pressure rising
Flight conditions Visual Meteorological Conditions
Raw dataMMHO 200240Z 25005KT 10SM SKC 33/22 A2982 RMK SLP090 52009 961 HZY
An error has occurred. This application may no longer respond until reloaded. Reload 🗙